createdAt,value
2022-09-18T00:02:03.341Z,1.10
2022-09-18T00:07:04.941Z,1.42
2022-09-18T00:12:06.551Z,0.85
2022-09-18T00:17:09.280Z,0.70
2022-09-18T00:22:10.887Z,0.75
2022-09-18T00:27:12.378Z,1.00
2022-09-18T00:32:13.897Z,0.77
2022-09-18T00:37:15.594Z,0.93
2022-09-18T00:42:19.668Z,0.73
2022-09-18T00:47:26.466Z,0.70
2022-09-18T00:52:33.867Z,0.90
2022-09-18T00:57:40.403Z,1.00
2022-09-18T01:02:44.799Z,1.00
2022-09-18T01:07:52.136Z,0.90
2022-09-18T01:12:58.308Z,0.80
2022-09-18T01:18:10.778Z,0.85
2022-09-18T01:23:34.210Z,0.90
2022-09-18T01:28:59.188Z,0.90
2022-09-18T01:34:13.277Z,1.42
2022-09-18T01:39:39.801Z,1.00
2022-09-18T01:44:45.528Z,1.08
2022-09-18T01:49:49.343Z,0.98
2022-09-18T01:54:53.162Z,1.17
2022-09-18T02:00:00.797Z,1.17
2022-09-18T02:05:07.565Z,0.98
2022-09-18T02:10:10.778Z,1.30
2022-09-18T02:15:14.552Z,1.30
2022-09-18T02:20:30.370Z,0.88
2022-09-18T02:25:42.080Z,1.20
2022-09-18T02:30:44.081Z,1.00
2022-09-18T02:35:49.627Z,1.00
2022-09-18T02:41:16.222Z,1.25
2022-09-18T02:46:26.301Z,1.10
2022-09-18T02:51:35.156Z,1.10
2022-09-18T02:56:47.064Z,1.00
2022-09-18T03:01:49.944Z,1.00
2022-09-18T03:06:54.506Z,0.90
2022-09-18T03:11:56.556Z,1.02
2022-09-18T03:16:58.188Z,1.08
2022-09-18T03:21:59.959Z,0.80
2022-09-18T03:27:05.060Z,1.30
2022-09-18T03:32:06.757Z,1.00
2022-09-18T03:37:16.356Z,1.20
2022-09-18T03:42:19.449Z,1.08
2022-09-18T03:47:21.090Z,1.20
2022-09-18T03:52:23.040Z,1.15
2022-09-18T03:57:30.947Z,1.25
2022-09-18T04:02:51.260Z,1.10
2022-09-18T04:08:13.298Z,1.17
2022-09-18T04:13:33.740Z,1.07
2022-09-18T04:18:40.352Z,1.10
2022-09-18T04:23:43.267Z,1.13
2022-09-18T04:28:47.574Z,1.10
2022-09-18T04:33:50.342Z,0.98
2022-09-18T04:38:55.849Z,1.40
2022-09-18T04:43:57.441Z,1.48
2022-09-18T04:48:59.071Z,1.10
2022-09-18T04:54:02.358Z,1.33
2022-09-18T04:59:04.162Z,1.42
2022-09-18T05:04:06.904Z,1.25
2022-09-18T05:09:18.293Z,1.20
2022-09-18T05:14:20.376Z,1.17
2022-09-18T05:19:26.215Z,1.05
2022-09-18T05:24:34.486Z,1.30
2022-09-18T05:29:36.257Z,1.00
2022-09-18T05:34:46.954Z,1.40
2022-09-18T05:39:48.601Z,1.38
2022-09-18T05:44:50.265Z,1.25
2022-09-18T05:49:56.465Z,1.25
2022-09-18T05:54:59.533Z,1.20
2022-09-18T06:00:02.252Z,1.77
2022-09-18T06:05:10.245Z,0.95
2022-09-18T06:10:12.898Z,1.23
2022-09-18T06:15:17.113Z,1.08
2022-09-18T06:20:19.858Z,0.88
2022-09-18T06:25:22.116Z,1.20
2022-09-18T06:30:25.970Z,1.30
2022-09-18T06:35:27.736Z,1.00
2022-09-18T06:40:30.614Z,1.05
2022-09-18T06:45:54.252Z,1.27
2022-09-18T06:50:59.656Z,1.10
2022-09-18T06:56:05.676Z,1.10
2022-09-18T07:01:10.442Z,0.95
2022-09-18T07:06:18.089Z,0.90
2022-09-18T07:11:22.884Z,1.27
2022-09-18T07:16:24.594Z,1.45
2022-09-18T07:21:26.737Z,1.10
2022-09-18T07:26:28.426Z,0.90
2022-09-18T07:31:31.058Z,1.00
2022-09-18T07:36:32.952Z,0.80
2022-09-18T07:41:34.569Z,1.50
2022-09-18T07:46:38.676Z,1.13
2022-09-18T07:51:42.671Z,1.08
2022-09-18T07:56:47.018Z,0.90
2022-09-18T08:01:55.616Z,1.20
2022-09-18T08:07:03.792Z,1.15
2022-09-18T08:12:24.123Z,0.80
2022-09-18T08:17:46.341Z,1.02
2022-09-18T08:23:09.271Z,1.20
2022-09-18T08:28:14.018Z,1.13
2022-09-18T08:33:25.251Z,0.73
2022-09-18T08:38:28.065Z,1.10
2022-09-18T08:44:18.162Z,1.58
2022-09-18T08:49:26.297Z,1.10
2022-09-18T08:54:46.164Z,1.30
2022-09-18T09:00:04.089Z,0.88
2022-09-18T09:05:10.645Z,1.10
2022-09-18T09:10:26.321Z,0.80
2022-09-18T09:15:50.433Z,1.10
2022-09-18T09:20:53.698Z,0.70
2022-09-18T09:26:03.491Z,1.20
2022-09-18T09:31:27.648Z,0.77
2022-09-18T09:36:57.582Z,0.95
2022-09-18T09:42:07.659Z,0.88
2022-09-18T09:47:45.794Z,0.73
2022-09-18T09:52:47.742Z,1.17
2022-09-18T09:58:06.339Z,1.20
2022-09-18T10:03:17.941Z,0.70
2022-09-18T10:08:42.220Z,1.00
2022-09-18T10:13:58.498Z,0.80
2022-09-18T10:19:01.509Z,0.75
2022-09-18T10:24:15.729Z,0.88
2022-09-18T10:29:18.691Z,0.70
2022-09-18T10:34:45.979Z,0.57
2022-09-18T10:39:53.160Z,0.50
2022-09-18T10:45:01.703Z,0.70
2022-09-18T10:50:06.934Z,0.70
2022-09-18T10:55:21.620Z,1.00
2022-09-18T11:00:38.810Z,0.70
2022-09-18T11:05:55.459Z,1.00
2022-09-18T11:11:05.294Z,1.00
2022-09-18T11:16:21.592Z,0.50
2022-09-18T11:21:23.621Z,0.57
2022-09-18T11:26:30.408Z,0.50
2022-09-18T11:31:48.179Z,0.50
2022-09-18T11:37:07.446Z,0.50
2022-09-18T11:42:14.606Z,0.50
2022-09-18T11:47:37.482Z,0.50
2022-09-18T11:52:44.472Z,0.60
2022-09-18T11:57:53.366Z,0.63
2022-09-18T12:03:22.911Z,0.60
2022-09-18T12:08:32.493Z,0.70
2022-09-18T12:13:59.470Z,0.40
2022-09-18T12:19:03.301Z,0.60
2022-09-18T12:24:11.696Z,0.70
2022-09-18T12:29:32.258Z,1.13
2022-09-18T12:35:32.833Z,0.75
2022-09-18T12:41:00.707Z,0.88
2022-09-18T12:46:24.564Z,0.63
2022-09-18T12:51:38.736Z,0.57
2022-09-18T12:56:50.242Z,0.60
2022-09-18T13:01:57.893Z,0.70
2022-09-18T13:07:11.580Z,1.15
2022-09-18T13:12:25.875Z,0.50
2022-09-18T13:17:44.165Z,0.50
2022-09-18T13:22:53.193Z,0.60
2022-09-18T13:27:57.337Z,0.50
2022-09-18T13:33:00.620Z,1.15
2022-09-18T13:38:06.372Z,0.80
2022-09-18T13:43:37.634Z,0.80
2022-09-18T13:48:45.482Z,0.70
2022-09-18T13:53:47.049Z,0.40
2022-09-18T13:58:54.423Z,0.68
2022-09-18T14:03:56.021Z,0.40
2022-09-18T14:08:57.594Z,0.70
2022-09-18T14:13:59.367Z,0.63
2022-09-18T14:19:04.801Z,0.60
2022-09-18T14:24:23.372Z,0.50
2022-09-18T14:29:29.224Z,0.82
2022-09-18T14:34:33.482Z,0.65
2022-09-18T14:39:36.526Z,0.43
2022-09-18T14:44:38.461Z,0.50
2022-09-18T14:49:39.944Z,0.70
2022-09-18T14:54:47.690Z,0.50
2022-09-18T14:59:52.972Z,0.60
2022-09-18T15:04:54.883Z,0.82
2022-09-18T15:09:59.925Z,0.80
2022-09-18T15:15:39.378Z,0.77
2022-09-18T15:20:47.568Z,0.82
2022-09-18T15:25:52.487Z,0.77
2022-09-18T15:30:59.257Z,0.60
2022-09-18T15:36:02.857Z,1.17
2022-09-18T15:41:22.106Z,0.80
2022-09-18T15:46:25.105Z,1.30
2022-09-18T15:51:33.144Z,0.70
2022-09-18T15:56:36.205Z,0.77
2022-09-18T16:01:40.439Z,0.57
2022-09-18T16:07:03.668Z,0.73
2022-09-18T16:12:25.869Z,0.50
2022-09-18T16:17:32.798Z,0.60
2022-09-18T16:22:40.618Z,0.95
2022-09-18T16:27:46.896Z,0.52
2022-09-18T16:32:48.712Z,0.50
2022-09-18T16:37:50.980Z,0.82
2022-09-18T16:42:58.410Z,0.80
2022-09-18T16:48:00.935Z,0.70
2022-09-18T16:53:02.611Z,0.50
2022-09-18T16:58:05.985Z,0.60
2022-09-18T17:03:07.921Z,0.60
2022-09-18T17:08:09.716Z,1.10
2022-09-18T17:13:11.436Z,1.20
2022-09-18T17:18:12.985Z,1.50
2022-09-18T17:23:14.538Z,0.80
2022-09-18T17:28:18.343Z,1.25
2022-09-18T17:33:20.540Z,0.55
2022-09-18T17:38:22.165Z,0.95
2022-09-18T17:43:25.059Z,0.88
2022-09-18T17:48:28.825Z,0.73
2022-09-18T17:53:32.371Z,0.70
2022-09-18T17:58:34.100Z,0.73
2022-09-18T18:03:35.830Z,0.75
2022-09-18T18:08:38.024Z,0.80
2022-09-18T18:13:41.684Z,1.23
2022-09-18T18:18:43.338Z,1.08
2022-09-18T18:23:45.356Z,0.90
2022-09-18T18:28:46.925Z,0.93
2022-09-18T18:33:48.518Z,1.13
2022-09-18T18:38:52.947Z,0.88
2022-09-18T18:43:58.369Z,1.00
2022-09-18T18:49:04.015Z,1.23
2022-09-18T18:54:06.437Z,0.98
2022-09-18T18:59:11.536Z,0.70
2022-09-18T19:04:15.340Z,1.13
2022-09-18T19:09:22.391Z,0.70
2022-09-18T19:14:30.268Z,0.90
2022-09-18T19:19:31.860Z,1.30
2022-09-18T19:24:33.429Z,0.90
2022-09-18T19:29:39.046Z,0.77
2022-09-18T19:34:40.551Z,1.20
2022-09-18T19:39:42.088Z,0.93
2022-09-18T19:44:48.205Z,0.75
2022-09-18T19:49:50.948Z,1.00
2022-09-18T19:54:54.392Z,1.00
2022-09-18T19:59:57.209Z,0.80
2022-09-18T20:04:58.760Z,0.70
2022-09-18T20:10:00.309Z,0.70
2022-09-18T20:15:03.142Z,0.60
2022-09-18T20:20:08.851Z,0.70
2022-09-18T20:25:10.933Z,1.00
2022-09-18T20:30:12.629Z,0.77
2022-09-18T20:35:14.480Z,0.80
2022-09-18T20:40:16.161Z,0.60
2022-09-18T20:45:18.130Z,0.70
2022-09-18T20:50:23.659Z,0.70
2022-09-18T20:55:25.369Z,0.55
2022-09-18T21:00:26.995Z,0.52
2022-09-18T21:05:28.624Z,0.90
2022-09-18T21:10:31.683Z,0.50
2022-09-18T21:15:34.868Z,0.70
2022-09-18T21:20:36.411Z,0.55
2022-09-18T21:25:38.081Z,0.70
2022-09-18T21:30:39.625Z,0.77
2022-09-18T21:35:50.356Z,1.00
2022-09-18T21:40:51.903Z,0.80
2022-09-18T21:45:53.459Z,0.68
2022-09-18T21:50:55.168Z,0.50
2022-09-18T21:56:01.633Z,0.52
2022-09-18T22:01:41.720Z,0.40
2022-09-18T22:11:46.993Z,0.40
2022-09-18T22:16:49.242Z,0.40
2022-09-18T22:21:51.915Z,0.50
2022-09-18T22:27:08.403Z,0.60
2022-09-18T22:32:10.788Z,0.50
2022-09-18T22:37:12.413Z,0.50
2022-09-18T22:42:15.121Z,0.30
2022-09-18T22:47:16.656Z,0.45
2022-09-18T22:52:18.195Z,0.28
2022-09-18T22:57:19.728Z,0.25
2022-09-18T23:02:23.251Z,0.40
2022-09-18T23:07:25.635Z,0.50
2022-09-18T23:12:27.172Z,0.40
2022-09-18T23:17:31.261Z,0.43
2022-09-18T23:22:32.806Z,0.40
2022-09-18T23:27:34.327Z,0.32
2022-09-18T23:32:35.906Z,0.30
2022-09-18T23:37:37.444Z,0.30
2022-09-18T23:42:39.128Z,0.20
2022-09-18T23:47:40.700Z,0.40
2022-09-18T23:52:43.420Z,0.20
2022-09-18T23:57:44.961Z,0.22
